Time;durP1;ratioP1;P1;durP2;ratioP2;P2;SDS_P1;SDS_P2;PMS_P1;PMS_P2;Temp;Humidity;BMP_temperature;BMP_pressure;BME280_temperature;BME280_humidity;BME280_pressure;Samples;Min_cycle;Max_cycle;Signal;HPM_P1;HPM_P2
2023/11/27 00:01:09;;;;;;;13.00;7.40;;;;;;;-0.81;80.03;99402.61;129668;1267;98033;-79
2023/11/27 00:04:14;;;;;;;13.20;6.90;;;;;;;-0.83;80.30;99405.95;129656;1267;99087;-79
2023/11/27 00:07:20;;;;;;;12.60;6.50;;;;;;;-0.74;80.35;99406.55;129618;1270;99158;-80
2023/11/27 00:10:27;;;;;;;14.40;7.10;;;;;;;-0.65;80.35;99408.91;129747;1266;97989;-79
2023/11/27 00:13:33;;;;;;;15.10;7.30;;;;;;;-0.63;80.25;99409.81;129614;1278;97975;-79
2023/11/27 00:16:38;;;;;;;12.30;6.90;;;;;;;-0.60;79.98;99407.16;129654;1267;99193;-80
2023/11/27 00:19:44;;;;;;;13.00;6.60;;;;;;;-0.59;80.11;99400.98;129856;1270;98043;-81
2023/11/27 00:22:49;;;;;;;11.60;6.40;;;;;;;-0.69;79.65;99404.82;129809;1268;97968;-79
2023/11/27 00:25:55;;;;;;;11.40;6.60;;;;;;;-0.79;79.83;99401.48;129595;1270;98032;-80
2023/11/27 00:29:00;;;;;;;11.90;6.50;;;;;;;-0.86;80.16;99404.00;129933;1269;98080;-79
2023/11/27 00:32:07;;;;;;;13.40;6.90;;;;;;;-0.87;80.31;99400.41;129777;1270;97977;-78
2023/11/27 00:35:13;;;;;;;12.20;7.10;;;;;;;-0.87;80.08;99399.74;129669;1267;98032;-80
2023/11/27 00:38:19;;;;;;;13.90;6.60;;;;;;;-0.86;80.42;99394.79;129955;1267;98594;-80
2023/11/27 00:41:24;;;;;;;11.70;6.20;;;;;;;-0.81;80.33;99394.09;129908;1267;98768;-79
2023/11/27 00:44:30;;;;;;;12.90;6.20;;;;;;;-0.71;80.22;99395.73;129663;1271;97992;-79
2023/11/27 00:47:36;;;;;;;12.20;6.90;;;;;;;-0.73;79.92;99400.38;129936;1267;98112;-79
2023/11/27 00:50:42;;;;;;;12.40;6.80;;;;;;;-0.73;80.20;99400.89;129622;1270;98041;-80
2023/11/27 00:53:47;;;;;;;11.30;6.70;;;;;;;-0.67;80.13;99402.62;129912;1279;97971;-80
2023/11/27 00:56:53;;;;;;;11.60;6.60;;;;;;;-0.65;80.07;99400.02;129638;1270;98043;-79
2023/11/27 00:59:59;;;;;;;71.60;22.90;;;;;;;-0.68;80.06;99394.46;129882;1270;99195;-80
2023/11/27 01:03:04;;;;;;;14.00;7.10;;;;;;;-0.72;80.08;99392.80;129692;1270;98003;-79
2023/11/27 01:06:15;;;;;;;13.10;7.00;;;;;;;-0.74;80.13;99394.67;129585;1269;98580;-79
2023/11/27 01:09:21;;;;;;;11.10;6.60;;;;;;;-0.76;80.20;99389.97;129745;1267;98053;-79
2023/11/27 01:12:27;;;;;;;13.90;6.70;;;;;;;-0.78;80.05;99393.40;129637;1267;99172;-78
2023/11/27 01:15:32;;;;;;;17.00;7.80;;;;;;;-0.78;80.31;99391.45;129613;1267;97998;-78
2023/11/27 01:18:38;;;;;;;13.60;7.10;;;;;;;-0.77;80.35;99392.61;129632;1267;99157;-79
2023/11/27 01:21:43;;;;;;;13.20;7.40;;;;;;;-0.78;80.21;99392.31;129674;1270;98768;-79
2023/11/27 01:24:49;;;;;;;12.50;6.70;;;;;;;-0.76;80.20;99389.40;129673;1267;99126;-79
2023/11/27 01:27:54;;;;;;;12.40;7.00;;;;;;;-0.75;79.99;99387.27;129591;1271;98029;-81
2023/11/27 01:31:00;;;;;;;14.90;8.30;;;;;;;-0.79;79.78;99387.52;129659;1267;98310;-79
2023/11/27 01:34:05;;;;;;;12.60;7.20;;;;;;;-0.84;79.88;99383.61;129602;1281;99161;-78
2023/11/27 01:37:11;;;;;;;12.70;7.20;;;;;;;-0.88;80.09;99378.16;129685;1270;98074;-80
2023/11/27 01:40:17;;;;;;;13.10;7.50;;;;;;;-0.96;80.18;99369.92;129715;1267;98132;-79
2023/11/27 01:43:22;;;;;;;12.70;7.10;;;;;;;-1.04;79.90;99366.63;130151;1270;97991;-80
2023/11/27 01:46:30;;;;;;;12.40;7.70;;;;;;;-1.15;80.05;99363.70;129708;1267;97998;-79
2023/11/27 01:49:38;;;;;;;12.30;6.80;;;;;;;-1.27;80.43;99360.81;129928;1270;97991;-80
2023/11/27 01:52:44;;;;;;;17.60;9.30;;;;;;;-1.39;80.77;99359.11;129676;1269;99216;-80
2023/11/27 01:55:50;;;;;;;14.40;8.50;;;;;;;-1.44;80.96;99352.48;129626;1267;98458;-78
2023/11/27 01:58:57;;;;;;;13.00;7.30;;;;;;;-1.41;80.93;99358.05;129630;1270;98876;-79
2023/11/27 02:02:03;;;;;;;13.90;8.00;;;;;;;-1.36;80.91;99358.08;129608;1267;98044;-79
2023/11/27 02:05:09;;;;;;;15.00;7.90;;;;;;;-1.30;81.29;99356.79;129591;1269;98032;-79
2023/11/27 02:08:15;;;;;;;12.50;7.30;;;;;;;-1.25;81.52;99355.05;129716;1267;98045;-78
2023/11/27 02:11:20;;;;;;;12.70;7.40;;;;;;;-1.17;81.20;99356.34;129621;1270;98065;-79
2023/11/27 02:14:26;;;;;;;13.80;7.40;;;;;;;-1.12;81.05;99361.39;129567;1271;98032;-79
2023/11/27 02:17:32;;;;;;;14.30;7.90;;;;;;;-1.10;81.22;99360.56;129667;1270;98023;-80
2023/11/27 02:20:38;;;;;;;15.10;8.50;;;;;;;-1.13;81.30;99357.11;129735;1269;98131;-79
2023/11/27 02:23:44;;;;;;;14.60;8.20;;;;;;;-1.21;81.54;99352.91;129645;1270;99186;-79
2023/11/27 02:26:50;;;;;;;14.10;7.70;;;;;;;-1.23;81.40;99352.85;129598;1271;99324;-79
2023/11/27 02:29:55;;;;;;;17.20;9.60;;;;;;;-1.22;81.63;99356.95;129677;1278;98018;-80
2023/11/27 02:33:02;;;;;;;18.30;9.70;;;;;;;-1.24;82.09;99352.77;129729;1270;99157;-79
2023/11/27 02:36:09;;;;;;;16.00;9.00;;;;;;;-1.24;81.89;99351.72;129896;1268;98028;-78
2023/11/27 02:39:14;;;;;;;13.80;8.10;;;;;;;-1.09;81.71;99351.79;129714;1265;97978;-80
2023/11/27 02:42:20;;;;;;;14.80;8.10;;;;;;;-0.98;81.60;99356.30;129668;1271;98091;-78
2023/11/27 02:45:25;;;;;;;16.50;8.50;;;;;;;-0.93;81.62;99357.34;129648;1270;98008;-79
2023/11/27 02:48:31;;;;;;;16.60;8.30;;;;;;;-1.01;81.44;99362.39;129659;1270;97991;-79
2023/11/27 02:51:41;;;;;;;14.80;8.60;;;;;;;-1.04;81.59;99360.67;129592;1270;97980;-79
2023/11/27 02:54:47;;;;;;;15.30;8.40;;;;;;;-1.11;81.75;99356.25;129671;1267;97990;-80
2023/11/27 02:57:53;;;;;;;14.40;8.60;;;;;;;-1.23;81.89;99353.18;129613;1270;98067;-79
2023/11/27 03:00:59;;;;;;;13.90;8.80;;;;;;;-1.31;81.96;99347.44;129722;1270;98106;-80
2023/11/27 03:04:05;;;;;;;15.30;8.60;;;;;;;-1.33;82.23;99344.27;129630;1265;98125;-79
2023/11/27 03:07:11;;;;;;;16.50;9.10;;;;;;;-1.37;81.96;99341.42;129586;1270;98453;-80
2023/11/27 03:10:17;;;;;;;18.30;9.10;;;;;;;-1.39;81.86;99338.93;129635;1270;98764;-79
2023/11/27 03:13:23;;;;;;;13.60;7.40;;;;;;;-1.37;82.01;99337.18;129697;1270;98099;-79
2023/11/27 03:16:29;;;;;;;15.80;8.50;;;;;;;-1.27;81.85;99336.39;129675;1267;99078;-79
2023/11/27 03:19:38;;;;;;;15.70;8.10;;;;;;;-1.21;81.67;99331.23;129637;1267;98049;-80
2023/11/27 03:22:43;;;;;;;16.80;9.00;;;;;;;-1.22;81.62;99327.81;129951;1267;98115;-80
2023/11/27 03:25:49;;;;;;;19.80;10.00;;;;;;;-1.27;81.39;99331.51;129663;1269;99157;-80
2023/11/27 03:28:55;;;;;;;19.50;10.20;;;;;;;-1.33;81.62;99333.10;129867;1282;99100;-79
2023/11/27 03:32:01;;;;;;;16.20;8.40;;;;;;;-1.34;81.52;99331.80;129716;1271;99166;-79
2023/11/27 03:35:08;;;;;;;32.60;15.30;;;;;;;-1.36;81.57;99328.25;129718;1272;98090;-81
2023/11/27 03:38:13;;;;;;;15.60;9.30;;;;;;;-1.42;82.07;99333.48;129941;1274;98477;-78
2023/11/27 03:41:23;;;;;;;19.70;9.90;;;;;;;-1.52;82.07;99335.36;129692;1267;98040;-79
2023/11/27 03:44:29;;;;;;;18.90;10.00;;;;;;;-1.59;82.04;99331.44;129958;1270;97977;-83
2023/11/27 03:47:34;;;;;;;32.40;14.80;;;;;;;-1.58;82.04;99331.90;130124;1268;98761;-80
2023/11/27 03:50:40;;;;;;;30.20;15.00;;;;;;;-1.47;82.12;99324.81;129870;1266;99177;-80
2023/11/27 03:53:45;;;;;;;34.60;16.30;;;;;;;-1.36;81.92;99324.38;129970;1270;98780;-80
2023/11/27 03:56:51;;;;;;;51.90;26.20;;;;;;;-1.24;81.87;99326.21;129914;1270;98899;-79
2023/11/27 03:59:57;;;;;;;63.50;19.60;;;;;;;-1.15;81.87;99324.96;129960;1270;97992;-80
2023/11/27 04:03:03;;;;;;;37.40;17.90;;;;;;;-1.19;81.59;99318.39;129891;1267;99225;-81
2023/11/27 04:06:12;;;;;;;101.90;49.40;;;;;;;-1.19;81.97;99315.39;129962;1267;98057;-78
2023/11/27 04:09:20;;;;;;;161.50;72.50;;;;;;;-1.12;81.98;99319.50;129961;1270;99179;-80
2023/11/27 04:12:26;;;;;;;44.50;18.20;;;;;;;-1.14;81.91;99320.70;129907;1270;98078;-80
2023/11/27 04:15:31;;;;;;;31.30;16.50;;;;;;;-1.20;81.95;99317.02;129902;1267;98153;-80
2023/11/27 04:18:37;;;;;;;35.80;18.10;;;;;;;-1.18;82.07;99314.99;129887;1267;97970;-79
2023/11/27 04:21:42;;;;;;;66.10;25.30;;;;;;;-1.17;82.22;99311.50;129856;1265;98778;-82
2023/11/27 04:24:48;;;;;;;100.00;44.30;;;;;;;-1.15;82.09;99311.84;129917;1270;99097;-79
2023/11/27 04:27:54;;;;;;;15.80;9.10;;;;;;;-1.10;82.09;99316.96;129909;1267;98094;-80
2023/11/27 04:31:00;;;;;;;18.90;10.00;;;;;;;-1.10;81.96;99321.27;129996;1269;98768;-80
2023/11/27 04:34:05;;;;;;;25.70;13.70;;;;;;;-1.05;82.01;99318.38;129888;1266;99180;-81
2023/11/27 04:37:14;;;;;;;107.90;41.10;;;;;;;-0.96;81.94;99318.27;129968;1267;97994;-81
2023/11/27 04:40:20;;;;;;;33.20;15.80;;;;;;;-0.87;81.94;99319.59;129868;1268;98102;-81
2023/11/27 04:43:25;;;;;;;44.50;18.90;;;;;;;-0.87;81.79;99318.18;129958;1268;98402;-80
2023/11/27 04:46:31;;;;;;;37.30;15.90;;;;;;;-0.91;81.86;99313.92;129896;1270;99097;-81
2023/11/27 04:49:37;;;;;;;28.00;12.80;;;;;;;-0.90;81.88;99309.11;129620;1270;98065;-81
2023/11/27 04:52:43;;;;;;;21.00;10.90;;;;;;;-0.93;81.92;99309.03;129889;1267;97978;-82
2023/11/27 04:55:49;;;;;;;46.50;20.90;;;;;;;-1.05;82.06;99309.45;129882;1267;97995;-81
2023/11/27 04:58:54;;;;;;;48.30;18.30;;;;;;;-1.09;82.40;99306.39;129917;1270;98067;-81
2023/11/27 05:02:00;;;;;;;27.30;16.20;;;;;;;-1.14;82.37;99304.48;129984;1270;98550;-81
2023/11/27 05:05:06;;;;;;;23.00;13.20;;;;;;;-1.14;82.66;99299.90;130011;1270;98022;-81
2023/11/27 05:08:12;;;;;;;48.60;21.20;;;;;;;-1.02;82.49;99301.04;129935;1265;97917;-81
2023/11/27 05:11:22;;;;;;;23.70;12.00;;;;;;;-0.93;82.33;99306.87;129911;1267;98073;-81
2023/11/27 05:14:27;;;;;;;113.90;39.60;;;;;;;-0.95;82.34;99306.14;129923;1269;99193;-80
2023/11/27 05:17:33;;;;;;;56.60;28.30;;;;;;;-0.95;82.32;99303.20;129883;1267;97980;-80
2023/11/27 05:20:38;;;;;;;24.90;13.50;;;;;;;-0.94;82.32;99303.16;129918;1266;97974;-81
2023/11/27 05:23:44;;;;;;;24.50;11.80;;;;;;;-0.99;82.47;99304.36;129897;1267;99190;-81
2023/11/27 05:26:50;;;;;;;34.70;15.50;;;;;;;-1.11;82.64;99307.04;129855;1268;99048;-81
2023/11/27 05:29:56;;;;;;;29.50;15.30;;;;;;;-1.18;82.80;99307.31;129884;1267;98380;-80
2023/11/27 05:33:02;;;;;;;51.10;20.70;;;;;;;-1.26;82.74;99299.84;129865;1269;99173;-81
2023/11/27 05:36:10;;;;;;;28.60;13.80;;;;;;;-1.31;83.07;99302.81;129886;1269;98404;-81
2023/11/27 05:39:15;;;;;;;27.90;12.60;;;;;;;-1.32;83.22;99304.94;129918;1270;97978;-81
2023/11/27 05:42:21;;;;;;;158.10;42.70;;;;;;;-1.27;82.99;99306.00;129881;1267;97993;-82
2023/11/27 05:45:27;;;;;;;26.20;13.00;;;;;;;-1.22;83.17;99308.48;129910;1267;98921;-81
2023/11/27 05:48:32;;;;;;;40.20;17.00;;;;;;;-1.23;83.12;99307.48;130367;1267;99141;-80
2023/11/27 05:51:39;;;;;;;418.10;135.10;;;;;;;-1.27;83.17;99304.80;130255;1270;97980;-81
2023/11/27 05:54:45;;;;;;;438.70;130.40;;;;;;;-1.24;82.96;99302.84;129982;1270;97981;-81
2023/11/27 05:57:50;;;;;;;655.60;226.80;;;;;;;-1.17;83.03;99304.16;129878;1268;98663;-80
2023/11/27 06:00:56;;;;;;;122.20;38.50;;;;;;;-1.15;82.89;99303.16;129862;1267;99059;-81
2023/11/27 06:04:02;;;;;;;659.60;188.70;;;;;;;-1.20;82.65;99304.48;129898;1267;97969;-80
2023/11/27 06:07:08;;;;;;;143.10;43.90;;;;;;;-1.20;82.85;99304.48;129860;1270;98481;-80
2023/11/27 06:10:13;;;;;;;126.10;41.60;;;;;;;-1.14;82.73;99302.38;129804;1270;97959;-81
2023/11/27 06:13:19;;;;;;;518.70;170.80;;;;;;;-1.06;82.49;99308.98;129897;1267;98009;-81
2023/11/27 06:16:25;;;;;;;517.90;182.20;;;;;;;-1.05;82.48;99312.44;129965;1270;99215;-80
2023/11/27 06:19:31;;;;;;;446.50;153.50;;;;;;;-1.03;82.39;99311.44;129977;1270;98067;-82
2023/11/27 06:22:36;;;;;;;408.80;165.80;;;;;;;-1.00;82.44;99308.42;129750;1267;97978;-77
2023/11/27 06:25:42;;;;;;;112.10;43.80;;;;;;;-0.98;82.25;99302.67;129706;1267;97981;-78
2023/11/27 06:28:47;;;;;;;60.70;26.20;;;;;;;-0.98;82.53;99303.41;129636;1266;98760;-78
2023/11/27 06:31:53;;;;;;;47.60;25.40;;;;;;;-0.98;82.48;99303.74;129669;1268;98133;-80
2023/11/27 06:34:58;;;;;;;33.80;19.90;;;;;;;-0.97;82.53;99310.83;129674;1270;101328;-77
2023/11/27 06:38:04;;;;;;;25.30;14.20;;;;;;;-0.96;82.32;99317.74;129725;1267;97997;-79
2023/11/27 06:41:10;;;;;;;22.70;12.70;;;;;;;-1.04;82.05;99318.25;129689;1268;98102;-78
2023/11/27 06:44:17;;;;;;;20.20;12.30;;;;;;;-1.24;82.18;99321.00;129693;1267;98217;-77
2023/11/27 06:47:27;;;;;;;23.20;11.90;;;;;;;-1.40;83.08;99324.51;130094;1267;99151;-79
2023/11/27 06:50:33;;;;;;;20.90;11.90;;;;;;;-1.52;83.50;99329.97;129943;1269;98129;-79
2023/11/27 06:53:38;;;;;;;26.40;13.90;;;;;;;-1.50;83.95;99334.36;129956;1267;98749;-81
2023/11/27 06:56:44;;;;;;;27.00;14.00;;;;;;;-1.53;83.77;99342.10;129861;1270;97970;-84
2023/11/27 06:59:50;;;;;;;25.60;14.20;;;;;;;-1.59;84.25;99344.73;129961;1270;98744;-79
2023/11/27 07:02:55;;;;;;;28.80;14.40;;;;;;;-1.59;84.12;99343.16;129966;1271;98006;-80
2023/11/27 07:06:01;;;;;;;26.10;14.10;;;;;;;-1.61;84.09;99341.73;129871;1286;98640;-81
2023/11/27 07:09:07;;;;;;;22.90;13.20;;;;;;;-1.60;84.11;99341.80;129631;1267;98027;-78
2023/11/27 07:12:14;;;;;;;23.20;12.50;;;;;;;-1.55;84.16;99340.79;129622;1271;98045;-78
2023/11/27 07:15:20;;;;;;;301.40;88.80;;;;;;;-1.50;83.89;99335.44;129665;1270;98061;-79
2023/11/27 07:18:26;;;;;;;342.10;88.30;;;;;;;-1.40;84.10;99337.71;129666;1268;98125;-79
2023/11/27 07:21:31;;;;;;;113.10;32.50;;;;;;;-1.18;83.94;99341.06;129700;1267;98014;-79
2023/11/27 07:24:37;;;;;;;63.10;21.40;;;;;;;-1.00;83.68;99343.19;129734;1282;97973;-79
2023/11/27 07:27:45;;;;;;;118.20;34.10;;;;;;;-0.90;83.20;99343.02;129563;1270;97989;-79
2023/11/27 07:30:50;;;;;;;227.00;63.00;;;;;;;-0.89;83.08;99340.48;129886;1271;97971;-80
2023/11/27 07:33:56;;;;;;;333.80;85.20;;;;;;;-0.85;83.33;99343.02;129875;1268;98017;-80
2023/11/27 07:37:01;;;;;;;115.80;33.10;;;;;;;-0.81;82.90;99343.23;129910;1270;99061;-78
2023/11/27 07:40:12;;;;;;;673.40;204.80;;;;;;;-0.81;83.16;99346.23;129838;1270;98752;-79
2023/11/27 07:43:18;;;;;;;632.70;218.10;;;;;;;-0.74;83.11;99346.01;129885;1270;98023;-79
2023/11/27 07:46:24;;;;;;;680.20;225.40;;;;;;;-0.70;83.07;99345.51;129849;1265;97997;-79
2023/11/27 07:49:30;;;;;;;387.90;112.80;;;;;;;-0.72;82.91;99348.24;129874;1267;98669;-80
2023/11/27 07:52:35;;;;;;;94.60;33.50;;;;;;;-0.72;82.90;99346.54;129850;1270;99193;-80
2023/11/27 07:55:41;;;;;;;253.10;76.80;;;;;;;-0.68;83.00;99347.48;130011;1271;99075;-79
2023/11/27 07:58:46;;;;;;;333.70;115.80;;;;;;;-0.61;82.72;99346.31;129899;1269;99218;-79
2023/11/27 08:01:52;;;;;;;375.10;147.50;;;;;;;-0.56;82.78;99341.63;130025;1265;97981;-79
2023/11/27 08:04:59;;;;;;;300.80;107.40;;;;;;;-0.49;82.69;99335.51;129905;1267;97982;-80
2023/11/27 08:08:07;;;;;;;255.20;97.10;;;;;;;-0.43;82.96;99328.10;130097;1270;99209;-80
2023/11/27 08:11:12;;;;;;;257.20;101.40;;;;;;;-0.31;82.77;99325.38;129972;1267;97997;-81
2023/11/27 08:14:24;;;;;;;84.90;32.60;;;;;;;-0.26;82.40;99322.38;130037;1268;98060;-80
2023/11/27 08:17:44;;;;;;;303.80;157.60;;;;;;;-0.20;82.61;99317.06;129879;1270;98100;-80
2023/11/27 08:20:53;;;;;;;124.60;57.10;;;;;;;-0.06;82.57;99314.16;129871;1265;98467;-79
2023/11/27 08:24:02;;;;;;;46.90;21.60;;;;;;;0.08;82.22;99313.89;129671;1270;98114;-78
2023/11/27 08:27:14;;;;;;;;;;;;;;;0.10;81.99;99321.80;129649;1274;99144;-78
2023/11/27 08:30:24;;;;;;;79.80;45.70;;;;;;;0.10;81.80;99323.75;129728;1270;98556;-78
2023/11/27 08:33:32;;;;;;;65.40;45.50;;;;;;;0.10;82.10;99322.17;129544;1269;99339;-78
2023/11/27 08:36:38;;;;;;;104.30;55.90;;;;;;;0.12;81.98;99319.92;129570;1271;98746;-80
2023/11/27 08:39:45;;;;;;;58.30;38.60;;;;;;;0.09;81.54;99315.93;129718;1270;99108;-80
2023/11/27 08:42:50;;;;;;;36.40;21.10;;;;;;;0.16;81.61;99307.38;129919;1267;97987;-79
2023/11/27 08:45:56;;;;;;;282.80;148.60;;;;;;;0.28;81.38;99308.81;129968;1270;99183;-80
2023/11/27 08:49:01;;;;;;;139.80;74.50;;;;;;;0.42;81.31;99307.45;129892;1267;98485;-80
2023/11/27 08:52:07;;;;;;;110.40;58.50;;;;;;;0.52;80.73;99310.55;129883;1270;99199;-79
2023/11/27 08:55:18;;;;;;;130.30;79.10;;;;;;;0.60;79.85;99315.03;129734;1281;98650;-81
2023/11/27 08:58:23;;;;;;;124.90;78.80;;;;;;;0.54;80.14;99317.39;129694;1265;98003;-79
2023/11/27 09:01:29;;;;;;;55.40;31.80;;;;;;;0.63;80.82;99316.56;129909;1267;98008;-80
2023/11/27 09:04:34;;;;;;;54.20;29.60;;;;;;;0.72;79.91;99319.27;129920;1270;98013;-81
2023/11/27 09:07:40;;;;;;;33.60;20.70;;;;;;;0.74;80.28;99314.15;129675;1270;99189;-81
2023/11/27 09:10:48;;;;;;;55.50;21.90;;;;;;;0.76;79.85;99313.83;129748;1268;99201;-79
2023/11/27 09:13:54;;;;;;;66.30;44.10;;;;;;;0.78;79.87;99312.00;129603;1271;98003;-80
2023/11/27 09:17:00;;;;;;;41.40;26.90;;;;;;;0.86;80.02;99316.10;129895;1267;98279;-80
2023/11/27 09:20:09;;;;;;;59.20;32.60;;;;;;;0.97;80.23;99312.83;129967;1265;98248;-79
2023/11/27 09:23:15;;;;;;;34.40;17.60;;;;;;;1.15;80.03;99316.35;130014;1267;99183;-79
2023/11/27 09:26:21;;;;;;;18.50;10.80;;;;;;;1.24;79.26;99320.48;129842;1271;98024;-80
2023/11/27 09:29:26;;;;;;;17.40;10.30;;;;;;;1.20;77.29;99316.22;129973;1267;99049;-78
2023/11/27 09:32:32;;;;;;;17.70;9.90;;;;;;;0.97;77.43;99316.27;129660;1270;99170;-78
2023/11/27 09:35:37;;;;;;;14.40;10.10;;;;;;;0.87;78.02;99322.69;129691;1265;98001;-78
2023/11/27 09:38:43;;;;;;;15.00;9.50;;;;;;;0.66;77.54;99321.77;129833;1269;98057;-79
2023/11/27 09:41:49;;;;;;;18.40;10.00;;;;;;;0.41;77.56;99314.86;129705;1269;97974;-78
2023/11/27 09:44:55;;;;;;;14.20;9.20;;;;;;;0.25;78.11;99315.30;129728;1271;97978;-78
2023/11/27 09:48:04;;;;;;;17.70;9.70;;;;;;;0.20;78.78;99313.75;129746;1267;98092;-79
2023/11/27 09:51:14;;;;;;;18.10;11.00;;;;;;;0.27;79.01;99308.85;129690;1267;98017;-79
2023/11/27 09:54:27;;;;;;;13.60;7.90;;;;;;;0.33;78.43;99303.73;129716;1270;97997;-80
2023/11/27 09:57:31;;;;;;;;;;;;;;;0.50;79.46;99295.80;129949;1270;97974;-80
2023/11/27 10:00:38;;;;;;;14.10;8.90;;;;;;;0.74;78.96;99296.02;129945;1268;98762;-81
2023/11/27 10:03:45;;;;;;;14.90;9.40;;;;;;;0.89;78.57;99293.31;130015;1268;97984;-80
2023/11/27 10:06:51;;;;;;;153.80;62.00;;;;;;;1.00;78.68;99290.05;129923;1270;97965;-79
2023/11/27 10:09:57;;;;;;;87.40;32.90;;;;;;;1.19;78.88;99291.70;129926;1271;98073;-80
2023/11/27 10:13:04;;;;;;;185.20;58.70;;;;;;;1.24;76.02;99287.52;129966;1268;98083;-79
2023/11/27 10:16:11;;;;;;;60.30;20.80;;;;;;;1.12;77.33;99276.79;130039;1270;98764;-79
2023/11/27 10:19:19;;;;;;;55.90;19.10;;;;;;;1.11;76.72;99268.90;129822;1267;97972;-79
2023/11/27 10:22:29;;;;;;;731.90;248.20;;;;;;;1.08;77.15;99266.85;129920;1268;98487;-80
2023/11/27 10:25:36;;;;;;;308.60;80.30;;;;;;;1.05;77.66;99266.56;129861;1269;97983;-81
2023/11/27 10:28:48;;;;;;;130.40;33.90;;;;;;;1.01;76.95;99263.85;129910;1267;98102;-79
2023/11/27 10:31:58;;;;;;;21.50;10.60;;;;;;;0.86;76.73;99264.25;129918;1268;98026;-79
2023/11/27 10:35:07;;;;;;;20.40;10.40;;;;;;;0.58;75.98;99260.02;129965;1268;97980;-81
2023/11/27 10:38:18;;;;;;;482.80;141.20;;;;;;;0.43;77.15;99259.81;129997;1268;97974;-79
2023/11/27 10:41:24;;;;;;;601.30;182.60;;;;;;;0.51;78.16;99257.58;130011;1266;98089;-78
2023/11/27 10:44:34;;;;;;;146.90;41.30;;;;;;;0.64;77.80;99254.20;129909;1270;97968;-79
2023/11/27 10:47:41;;;;;;;35.80;14.60;;;;;;;0.71;77.53;99247.91;129861;1270;97969;-80
2023/11/27 10:50:49;;;;;;;673.40;211.10;;;;;;;0.75;77.00;99246.17;129865;1269;99140;-80
2023/11/27 10:53:55;;;;;;;374.30;111.60;;;;;;;0.80;77.58;99248.27;129913;1267;98014;-79
2023/11/27 10:57:03;;;;;;;160.80;47.40;;;;;;;0.91;77.54;99245.66;129942;1268;97997;-79
2023/11/27 11:00:14;;;;;;;200.00;63.70;;;;;;;0.98;76.52;99247.11;130004;1270;98033;-80
2023/11/27 11:03:24;;;;;;;174.00;58.00;;;;;;;0.99;76.80;99241.54;129938;1271;99231;-80
2023/11/27 11:06:30;;;;;;;203.00;70.20;;;;;;;1.00;76.85;99236.24;129952;1266;97987;-81
2023/11/27 11:09:37;;;;;;;792.80;360.10;;;;;;;0.92;76.44;99234.08;129895;1271;99104;-80
2023/11/27 11:12:44;;;;;;;320.50;110.50;;;;;;;0.86;77.16;99230.16;129881;1268;99140;-81
2023/11/27 11:15:57;;;;;;;189.10;61.20;;;;;;;0.87;77.04;99230.39;129971;1270;97992;-80
2023/11/27 11:19:08;;;;;;;332.80;103.60;;;;;;;0.85;76.68;99228.61;129914;1265;98073;-80
2023/11/27 11:22:30;;;;;;;84.60;32.40;;;;;;;0.76;76.61;99224.02;129913;1269;98435;-80
2023/11/27 11:25:46;;;;;;;683.10;224.20;;;;;;;0.65;76.41;99222.98;129939;1270;97978;-79
2023/11/27 11:29:11;;;;;;;581.90;176.40;;;;;;;0.66;77.12;99221.09;129942;1271;97998;-79
2023/11/27 11:32:18;;;;;;;673.70;214.60;;;;;;;0.69;76.73;99218.61;129961;1265;98261;-79
2023/11/27 11:35:27;;;;;;;575.50;182.30;;;;;;;0.74;77.08;99222.23;129958;1270;97976;-79
2023/11/27 11:38:33;;;;;;;671.00;231.50;;;;;;;0.84;76.91;99221.02;129942;1270;99241;-79
2023/11/27 11:41:39;;;;;;;326.70;92.70;;;;;;;0.92;76.78;99221.60;129961;1265;98102;-79
2023/11/27 11:45:05;;;;;;;388.10;126.40;;;;;;;0.99;76.70;99209.03;130025;1269;99209;-79
2023/11/27 11:48:16;;;;;;;132.50;45.30;;;;;;;1.07;76.11;99205.75;129743;1270;98025;-79
2023/11/27 11:51:24;;;;;;;126.50;46.80;;;;;;;1.13;75.79;99206.55;129751;1267;97985;-79
2023/11/27 11:54:39;;;;;;;82.40;32.60;;;;;;;1.23;75.45;99209.50;129873;1269;99197;-79
2023/11/27 11:57:45;;;;;;;29.20;12.90;;;;;;;1.28;74.37;99204.67;129769;1267;210679;-79
2023/11/27 12:01:00;;;;;;;21.20;11.30;;;;;;;1.26;74.01;99201.54;129963;1270;97977;-78
2023/11/27 12:04:08;;;;;;;22.10;11.10;;;;;;;1.29;74.53;99195.97;129970;1265;99173;-79
2023/11/27 12:07:14;;;;;;;40.30;21.30;;;;;;;1.33;73.77;99195.02;129968;1270;97968;-79
2023/11/27 12:10:20;;;;;;;60.40;31.00;;;;;;;1.44;75.24;99191.53;130150;1266;99170;-79
2023/11/27 12:13:33;;;;;;;46.00;22.30;;;;;;;1.59;75.67;99196.66;129936;1266;98134;-79
2023/11/27 12:16:39;;;;;;;25.50;13.10;;;;;;;1.66;73.92;99192.91;130031;1268;97987;-80
2023/11/27 12:19:46;;;;;;;37.50;21.00;;;;;;;1.65;73.70;99191.44;129968;1269;97997;-79
2023/11/27 12:22:52;;;;;;;30.90;16.40;;;;;;;1.62;73.96;99189.73;129912;1270;97977;-79
2023/11/27 12:25:58;;;;;;;22.90;11.80;;;;;;;1.60;74.63;99181.15;129906;1270;97968;-79
2023/11/27 12:29:04;;;;;;;22.40;11.30;;;;;;;1.49;71.90;99177.98;129913;1268;97969;-80
2023/11/27 12:32:10;;;;;;;18.00;10.50;;;;;;;1.27;72.41;99180.37;130053;1266;97982;-80
2023/11/27 12:35:16;;;;;;;21.90;12.80;;;;;;;1.12;73.58;99175.02;129889;1268;99071;-80
2023/11/27 12:38:24;;;;;;;14.70;9.60;;;;;;;1.08;72.83;99178.06;130010;1268;97971;-80
2023/11/27 12:41:32;;;;;;;16.50;9.90;;;;;;;0.93;71.67;99176.77;130026;1270;97987;-80
2023/11/27 12:44:38;;;;;;;16.50;9.90;;;;;;;0.84;73.08;99174.80;129933;1270;97978;-80
2023/11/27 12:47:50;;;;;;;16.70;9.50;;;;;;;0.83;73.36;99169.99;129976;1270;97987;-81
2023/11/27 12:50:56;;;;;;;16.00;9.20;;;;;;;0.81;72.69;99169.43;130026;1270;99223;-78
2023/11/27 12:54:02;;;;;;;17.60;11.00;;;;;;;0.75;72.81;99168.09;129850;1268;98027;-81
2023/11/27 12:57:10;;;;;;;215.20;71.70;;;;;;;0.77;73.91;99165.66;129912;1270;98041;-78
2023/11/27 13:00:16;;;;;;;697.50;210.20;;;;;;;0.91;74.63;99163.23;129805;1271;97997;-79
2023/11/27 13:03:22;;;;;;;679.20;259.30;;;;;;;1.07;74.63;99162.02;129926;1270;98624;-80
2023/11/27 13:06:28;;;;;;;37.80;17.50;;;;;;;1.21;73.71;99162.10;129909;1269;98003;-80
2023/11/27 13:09:35;;;;;;;31.10;15.20;;;;;;;1.26;72.57;99158.73;129930;1273;99160;-80
2023/11/27 13:12:48;;;;;;;34.20;15.50;;;;;;;1.29;73.62;99154.84;129925;1270;97974;-81
2023/11/27 13:15:58;;;;;;;25.70;14.60;;;;;;;1.40;73.27;99157.34;129974;1270;97994;-80
2023/11/27 13:19:06;;;;;;;29.20;17.90;;;;;;;1.38;72.70;99156.59;129888;1267;98023;-78
2023/11/27 13:22:14;;;;;;;38.90;25.70;;;;;;;1.42;73.29;99157.88;129987;1267;98093;-79
2023/11/27 13:25:23;;;;;;;22.10;13.70;;;;;;;1.48;74.01;99156.46;129911;1269;98006;-80
2023/11/27 13:28:29;;;;;;;20.70;11.40;;;;;;;1.47;73.06;99152.70;129832;1271;97981;-80
2023/11/27 13:31:36;;;;;;;23.70;13.20;;;;;;;1.39;72.61;99155.25;129971;1267;97972;-78
2023/11/27 13:34:55;;;;;;;19.80;11.50;;;;;;;1.22;72.04;99150.97;129917;1271;97992;-81
2023/11/27 13:38:02;;;;;;;18.90;11.40;;;;;;;1.11;73.59;99153.81;129994;1270;99160;-78
2023/11/27 13:41:12;;;;;;;19.70;11.10;;;;;;;1.07;72.72;99156.02;129743;1267;98392;-78
2023/11/27 13:44:18;;;;;;;40.70;27.40;;;;;;;0.98;73.11;99153.20;129672;1271;98071;-79
2023/11/27 13:47:23;;;;;;;26.80;15.60;;;;;;;0.91;72.73;99156.23;129621;1271;97998;-79
2023/11/27 13:50:37;;;;;;;29.70;14.70;;;;;;;0.80;72.63;99153.40;129790;1267;98010;-81
2023/11/27 13:53:43;;;;;;;32.70;17.10;;;;;;;0.68;72.90;99155.89;129833;1270;98078;-80
2023/11/27 13:56:48;;;;;;;27.40;14.90;;;;;;;0.58;73.42;99153.87;129869;1270;98075;-81
2023/11/27 13:59:56;;;;;;;38.40;18.00;;;;;;;0.51;73.69;99154.74;129840;1267;99190;-79
2023/11/27 14:03:03;;;;;;;52.50;22.80;;;;;;;0.47;73.96;99150.86;129886;1269;98064;-80
2023/11/27 14:06:18;;;;;;;50.70;24.60;;;;;;;0.42;73.74;99151.59;129988;1270;99189;-79
2023/11/27 14:12:48;;;;;;;37.90;18.50;;;;;;;0.40;74.49;99152.38;129893;1270;98778;-78
2023/11/27 14:15:57;;;;;;;724.00;205.40;;;;;;;0.45;74.36;99150.64;129696;1273;98102;-78